createdAt,value
2019-01-25T10:12:34.867Z,44.77
2019-01-25T10:15:03.623Z,44.73
2019-01-25T10:17:34.781Z,44.40
2019-01-25T10:20:06.948Z,40.07
2019-01-25T10:22:38.639Z,40.07
2019-01-25T10:25:11.246Z,41.83
2019-01-25T10:27:42.414Z,41.23
2019-01-25T10:30:18.047Z,44.80
2019-01-25T10:32:49.255Z,43.13
2019-01-25T10:35:21.116Z,45.20
2019-01-25T10:37:53.077Z,38.97
2019-01-25T10:40:24.438Z,41.50
2019-01-25T10:42:57.271Z,41.00
2019-01-25T10:45:32.453Z,39.20
2019-01-25T10:48:03.676Z,38.70
2019-01-25T10:50:36.204Z,35.70
2019-01-25T10:53:09.139Z,33.37
2019-01-25T10:55:40.771Z,33.57
2019-01-25T10:58:12.398Z,42.20
2019-01-25T11:00:43.554Z,36.37
2019-01-25T11:03:14.762Z,36.23
2019-01-25T11:05:45.903Z,41.90
2019-01-25T11:08:17.215Z,35.17
2019-01-25T11:10:48.408Z,37.07
2019-01-25T11:13:23.066Z,37.47
2019-01-25T11:15:54.208Z,38.83
2019-01-25T11:18:27.231Z,40.80
2019-01-25T11:20:58.614Z,37.40
2019-01-25T11:23:29.732Z,39.10
2019-01-25T11:26:01.641Z,38.57
2019-01-25T11:28:43.091Z,39.10
2019-01-25T11:31:14.248Z,38.20
2019-01-25T11:34:04.361Z,40.43
2019-01-25T11:36:54.491Z,38.80
2019-01-25T11:39:49.185Z,38.33
2019-01-25T11:42:38.843Z,37.87
2019-01-25T11:45:29.755Z,42.53
2019-01-25T11:48:20.672Z,38.63
2019-01-25T11:51:11.699Z,39.17
2019-01-25T11:54:01.831Z,39.50
2019-01-25T11:56:52.242Z,35.00
2019-01-25T11:59:43.206Z,38.73
2019-01-25T12:02:34.455Z,40.90
2019-01-25T12:06:04.256Z,38.87
2019-01-25T12:08:46.855Z,41.00
2019-01-25T12:11:55.921Z,42.13
2019-01-25T12:14:45.984Z,41.03
2019-01-25T12:17:36.399Z,37.57
2019-01-25T12:21:09.522Z,40.67
2019-01-25T12:23:59.817Z,39.63
2019-01-25T12:26:49.894Z,41.97
2019-01-25T12:29:40.676Z,39.33
2019-01-25T12:32:30.741Z,42.87
2019-01-25T12:36:00.670Z,38.00
2019-01-25T12:38:50.862Z,40.03
2019-01-25T12:41:40.925Z,40.80
2019-01-25T12:44:31.070Z,43.13
2019-01-25T12:50:36.790Z,45.87
2019-01-25T12:53:27.357Z,47.13
2019-01-25T12:56:17.994Z,45.00
2019-01-25T12:59:09.639Z,42.40
2019-01-25T13:05:50.202Z,48.17
2019-01-25T13:08:32.828Z,52.17
2019-01-25T13:11:22.941Z,51.40
2019-01-25T13:14:13.057Z,49.77
2019-01-25T13:17:03.158Z,52.73
2019-01-25T13:19:53.247Z,48.17
2019-01-25T13:22:43.570Z,51.63
2019-01-25T13:25:33.667Z,52.87
2019-01-25T13:28:23.766Z,53.87
2019-01-25T13:31:13.902Z,49.10
2019-01-25T13:34:03.979Z,59.03
2019-01-25T13:36:57.238Z,54.87
2019-01-25T13:39:45.844Z,57.20
2019-01-25T13:42:35.938Z,59.00
2019-01-25T13:45:26.193Z,53.63
2019-01-25T13:48:16.452Z,57.13
2019-01-25T13:51:06.699Z,55.47
2019-01-25T13:53:56.769Z,55.50
2019-01-25T13:56:46.876Z,60.57
2019-01-25T13:59:37.002Z,56.17
2019-01-25T14:02:34.851Z,57.80
2019-01-25T14:08:34.839Z,54.80
2019-01-25T14:14:42.035Z,56.97
2019-01-25T14:17:32.802Z,60.40
2019-01-25T14:20:25.263Z,58.37
2019-01-25T14:26:44.391Z,63.87
2019-01-25T14:29:34.515Z,66.60
2019-01-25T14:32:24.580Z,61.40
2019-01-25T14:35:14.813Z,65.00
2019-01-25T14:41:34.226Z,67.93
2019-01-25T14:44:25.307Z,63.77
2019-01-25T14:47:15.332Z,63.83
2019-01-25T14:50:45.725Z,65.60
2019-01-25T14:53:35.810Z,64.27
2019-01-25T14:56:26.536Z,63.80
2019-01-25T14:59:17.790Z,67.43
2019-01-25T15:02:08.062Z,66.00
2019-01-25T15:04:58.105Z,66.40
2019-01-25T15:11:04.421Z,68.77
2019-01-25T15:14:02.097Z,72.63
2019-01-25T15:16:47.017Z,65.70
2019-01-25T15:19:56.356Z,70.40
2019-01-25T15:22:46.395Z,73.43
2019-01-25T15:25:36.703Z,75.90
2019-01-25T15:28:26.790Z,68.90
2019-01-25T15:34:32.950Z,74.27
2019-01-25T15:37:23.415Z,69.57
2019-01-25T15:43:43.713Z,72.37
2019-01-25T15:46:33.812Z,69.70
2019-01-25T15:55:31.916Z,62.63
2019-01-25T15:58:22.306Z,68.03
2019-01-25T16:01:13.129Z,61.37
2019-01-25T16:04:03.240Z,59.37
2019-01-25T16:06:53.631Z,58.07
2019-01-25T16:09:36.375Z,61.00
2019-01-25T16:12:27.541Z,60.30
2019-01-25T16:15:22.802Z,59.13
2019-01-25T16:18:12.951Z,53.43
2019-01-25T16:21:03.146Z,57.57
2019-01-25T16:23:54.090Z,56.97
2019-01-25T16:26:44.937Z,49.33
2019-01-25T16:29:34.951Z,47.23
2019-01-25T16:32:25.780Z,54.40
2019-01-25T16:35:17.252Z,51.40
2019-01-25T16:38:07.704Z,48.37
2019-01-25T16:40:57.735Z,53.00
2019-01-25T16:46:56.931Z,48.73
2019-01-25T16:49:47.013Z,48.10
2019-01-25T16:52:37.671Z,50.17
2019-01-25T16:55:27.787Z,54.23
2019-01-25T17:01:13.498Z,56.97
2019-01-25T17:04:03.525Z,50.80
2019-01-25T17:06:53.687Z,46.83
2019-01-25T17:09:36.415Z,45.13
2019-01-25T17:12:26.624Z,47.57
2019-01-25T17:18:46.118Z,47.97
2019-01-25T17:21:36.236Z,44.43
2019-01-25T17:24:26.200Z,46.40
2019-01-25T17:27:35.725Z,45.83
2019-01-25T17:33:45.039Z,42.73
2019-01-25T17:36:35.133Z,45.07
2019-01-25T17:39:25.170Z,43.30
2019-01-25T17:42:15.561Z,46.40
2019-01-25T17:45:06.696Z,48.53
2019-01-25T17:47:56.974Z,47.60
2019-01-25T17:50:47.092Z,47.93
2019-01-25T17:53:37.145Z,46.97
2019-01-25T17:56:27.230Z,44.67
2019-01-25T17:59:17.346Z,45.97
2019-01-25T18:02:09.051Z,46.17
2019-01-25T18:05:18.281Z,44.60
2019-01-25T18:08:01.033Z,46.30
2019-01-25T18:11:10.268Z,49.17
2019-01-25T18:14:00.356Z,45.77
2019-01-25T18:16:50.377Z,55.13
2019-01-25T18:22:53.650Z,46.33
2019-01-25T18:26:07.698Z,44.70
2019-01-25T18:29:11.216Z,54.10
2019-01-25T18:35:32.509Z,46.97
2019-01-25T18:41:52.498Z,48.60
2019-01-25T18:44:42.648Z,44.73
2019-01-25T18:47:32.664Z,52.00
2019-01-25T18:50:22.845Z,46.87
2019-01-25T18:53:13.015Z,52.73
2019-01-25T18:56:03.135Z,47.20
2019-01-25T18:58:53.218Z,51.57
2019-01-25T19:01:44.021Z,51.93
2019-01-25T19:04:34.625Z,52.80
2019-01-25T19:07:26.642Z,53.43
2019-01-25T19:10:11.320Z,66.50
2019-01-25T19:13:00.788Z,51.03
2019-01-25T19:15:50.904Z,54.70
2019-01-25T19:18:40.935Z,50.50
2019-01-25T19:21:31.565Z,53.70
2019-01-25T19:24:21.605Z,53.40
2019-01-25T19:27:12.551Z,56.57
2019-01-25T19:30:02.518Z,55.73
2019-01-25T19:33:11.748Z,61.27
2019-01-25T19:36:02.584Z,65.80
2019-01-25T19:38:52.532Z,57.13
2019-01-25T19:41:43.155Z,58.73
2019-01-25T19:44:25.547Z,66.03
2019-01-25T19:47:15.651Z,68.60
2019-01-25T19:50:45.364Z,58.00
2019-01-25T19:53:36.430Z,58.37
2019-01-25T19:56:26.524Z,58.67
2019-01-25T19:59:16.614Z,74.50
2019-01-25T20:02:06.841Z,62.37
2019-01-25T20:04:57.678Z,81.50
2019-01-25T20:07:47.693Z,60.50
2019-01-25T20:10:38.183Z,59.77
2019-01-25T20:13:28.339Z,58.40
2019-01-25T20:16:37.500Z,61.00
2019-01-25T20:19:27.867Z,68.10
2019-01-25T20:22:17.879Z,59.87
2019-01-25T20:25:09.084Z,59.97
2019-01-25T20:28:00.396Z,62.00
2019-01-25T20:30:50.484Z,66.87
2019-01-25T20:33:42.361Z,72.63
2019-01-25T20:36:33.167Z,69.70
2019-01-25T20:39:24.363Z,69.07
2019-01-25T20:45:32.868Z,65.17
2019-01-25T20:48:24.130Z,59.13
2019-01-25T20:54:30.590Z,61.77
2019-01-25T20:57:20.629Z,61.07
2019-01-25T21:00:14.477Z,66.57
2019-01-25T21:06:20.585Z,65.33
2019-01-25T21:09:12.091Z,64.83
2019-01-25T21:12:02.306Z,67.13
2019-01-25T21:15:11.561Z,75.47
2019-01-25T21:18:01.717Z,67.27
2019-01-25T21:20:51.736Z,73.27
2019-01-25T21:23:44.835Z,62.53
2019-01-25T21:26:34.969Z,67.13
2019-01-25T21:29:25.048Z,67.77
2019-01-25T21:32:16.133Z,63.37
2019-01-25T21:35:07.643Z,65.07
2019-01-25T21:37:58.232Z,64.50
2019-01-25T21:40:49.329Z,59.63
2019-01-25T21:46:39.981Z,66.37
2019-01-25T21:49:27.423Z,59.07
2019-01-25T21:52:17.820Z,63.27
2019-01-25T21:55:48.135Z,67.43
2019-01-25T21:58:39.399Z,65.00
2019-01-25T22:02:10.717Z,68.30
2019-01-25T22:08:23.587Z,62.97
2019-01-25T22:15:01.455Z,63.77
2019-01-25T22:20:58.471Z,64.33
2019-01-25T22:24:29.927Z,67.27
2019-01-25T22:27:59.629Z,59.17
2019-01-25T22:31:29.349Z,68.83
2019-01-25T22:34:20.431Z,71.30
2019-01-25T22:37:10.660Z,60.50
2019-01-25T22:40:24.288Z,66.33
2019-01-25T22:43:08.778Z,71.70
2019-01-25T22:46:39.006Z,69.97
2019-01-25T22:50:10.948Z,67.50
2019-01-25T22:53:25.083Z,67.53
2019-01-25T23:00:25.173Z,67.33
2019-01-25T23:03:55.668Z,69.03
2019-01-25T23:10:23.585Z,60.60
2019-01-25T23:13:53.612Z,59.50
2019-01-25T23:16:50.889Z,64.57
2019-01-25T23:20:00.810Z,61.47
2019-01-25T23:22:52.009Z,60.90
2019-01-25T23:25:43.143Z,59.40
2019-01-25T23:32:04.926Z,62.33
2019-01-25T23:41:24.363Z,61.03
2019-01-25T23:44:07.113Z,54.83
2019-01-25T23:50:14.791Z,59.13
2019-01-25T23:53:05.777Z,58.27
2019-01-25T23:55:56.725Z,60.90
2019-01-25T23:58:48.517Z,64.53
